aviador You're here:

FMMI Decoded Metar

ANTANANARIVO in MADAGASCAR
Report Time2018-07-16 13:30:00
UTC Time2018-07-16 13:58:15
Flight Rules vfr VFR
Wind170° at 10 kt
W.Decomp.*RWY 11: 2.6 kt HW 9.7 kt RCW
W.Rank170° ranks 12
Current wind is above 170° avg. (6.0)
Visibility9999 m
Phenomena:N/A
Clouds:Few 020 Hf
Scattered 023 Hf
Expected CloudBase > 4,400 ft AGL from Temp-Dew spread
CeilingNone
Temp17°C (ISA +10)
Dew Point06°C (49% RH)
AAT12.5°C
QNH1023 hPa
Density Alt5,187 ft
Elevation4,186 ft
Report Wrong Elevation
Raw Report
METAR FMMI 161330Z 17010KT 130V210 9999 FEW020 SCT023 17/06 Q1023
NOSIG=

Extra information for FMMI:More info

Metar Taf Metar & Taf Last 4 Metars F.Rules Stats Wind Profile Meteogram Temp Stats Airport Information Weather charts Add Link Nearby VenuesMetar ALERT Operation Metar Decoded Social comments